sensor_id;sensor_type;location;lat;lon;timestamp;temperature;humidity
6654;DHT22;3363;50.942;7.034;2023-09-18T00:01:50;22.50;90.00
6654;DHT22;3363;50.942;7.034;2023-09-18T00:04:18;22.70;88.10
6654;DHT22;3363;50.942;7.034;2023-09-18T00:06:45;22.60;85.40
6654;DHT22;3363;50.942;7.034;2023-09-18T00:09:12;22.60;87.30
6654;DHT22;3363;50.942;7.034;2023-09-18T00:11:39;22.60;87.70
6654;DHT22;3363;50.942;7.034;2023-09-18T00:14:05;22.70;87.10
6654;DHT22;3363;50.942;7.034;2023-09-18T00:16:32;22.80;86.20
6654;DHT22;3363;50.942;7.034;2023-09-18T00:18:59;22.80;85.80
6654;DHT22;3363;50.942;7.034;2023-09-18T00:21:27;22.70;85.80
6654;DHT22;3363;50.942;7.034;2023-09-18T00:23:55;22.80;85.60
6654;DHT22;3363;50.942;7.034;2023-09-18T00:26:23;22.80;85.20
6654;DHT22;3363;50.942;7.034;2023-09-18T00:28:50;22.80;84.80
6654;DHT22;3363;50.942;7.034;2023-09-18T00:31:16;22.70;83.30
6654;DHT22;3363;50.942;7.034;2023-09-18T00:33:43;22.70;85.00
6654;DHT22;3363;50.942;7.034;2023-09-18T00:36:10;22.60;84.20
6654;DHT22;3363;50.942;7.034;2023-09-18T00:38:38;22.70;85.40
6654;DHT22;3363;50.942;7.034;2023-09-18T00:41:05;22.70;85.10
6654;DHT22;3363;50.942;7.034;2023-09-18T00:43:31;22.70;84.60
6654;DHT22;3363;50.942;7.034;2023-09-18T00:45:58;22.80;84.40
6654;DHT22;3363;50.942;7.034;2023-09-18T00:48:25;22.80;84.20
6654;DHT22;3363;50.942;7.034;2023-09-18T00:50:53;22.80;83.70
6654;DHT22;3363;50.942;7.034;2023-09-18T00:53:20;22.70;83.80
6654;DHT22;3363;50.942;7.034;2023-09-18T00:55:49;22.60;84.70
6654;DHT22;3363;50.942;7.034;2023-09-18T00:58:17;22.60;84.80
6654;DHT22;3363;50.942;7.034;2023-09-18T01:00:44;22.70;84.30
6654;DHT22;3363;50.942;7.034;2023-09-18T01:03:10;22.70;84.00
6654;DHT22;3363;50.942;7.034;2023-09-18T01:05:37;22.60;82.50
6654;DHT22;3363;50.942;7.034;2023-09-18T01:08:04;22.60;84.20
6654;DHT22;3363;50.942;7.034;2023-09-18T01:10:32;22.60;84.20
6654;DHT22;3363;50.942;7.034;2023-09-18T01:13:02;22.50;84.30
6654;DHT22;3363;50.942;7.034;2023-09-18T01:15:32;22.50;84.70
6654;DHT22;3363;50.942;7.034;2023-09-18T01:18:02;22.50;84.40
6654;DHT22;3363;50.942;7.034;2023-09-18T01:20:29;22.50;84.60
6654;DHT22;3363;50.942;7.034;2023-09-18T01:22:57;22.60;84.20
6654;DHT22;3363;50.942;7.034;2023-09-18T01:25:24;22.60;83.90
6654;DHT22;3363;50.942;7.034;2023-09-18T01:27:50;22.60;83.80
6654;DHT22;3363;50.942;7.034;2023-09-18T01:30:18;22.60;83.70
6654;DHT22;3363;50.942;7.034;2023-09-18T01:32:44;22.60;83.70
6654;DHT22;3363;50.942;7.034;2023-09-18T01:35:12;22.60;83.60
6654;DHT22;3363;50.942;7.034;2023-09-18T01:37:40;22.60;83.70
6654;DHT22;3363;50.942;7.034;2023-09-18T01:40:08;22.60;83.10
6654;DHT22;3363;50.942;7.034;2023-09-18T01:42:36;22.50;83.70
6654;DHT22;3363;50.942;7.034;2023-09-18T01:45:04;22.50;83.30
6654;DHT22;3363;50.942;7.034;2023-09-18T01:47:31;22.50;83.60
6654;DHT22;3363;50.942;7.034;2023-09-18T01:49:57;22.50;83.50
6654;DHT22;3363;50.942;7.034;2023-09-18T01:52:24;22.50;83.50
6654;DHT22;3363;50.942;7.034;2023-09-18T01:54:51;22.50;83.40
6654;DHT22;3363;50.942;7.034;2023-09-18T01:57:19;22.50;83.50
6654;DHT22;3363;50.942;7.034;2023-09-18T01:59:45;22.50;83.60
6654;DHT22;3363;50.942;7.034;2023-09-18T02:02:12;22.50;83.50
6654;DHT22;3363;50.942;7.034;2023-09-18T02:04:39;22.50;83.60
6654;DHT22;3363;50.942;7.034;2023-09-18T02:07:06;22.50;83.70
6654;DHT22;3363;50.942;7.034;2023-09-18T02:09:32;22.50;83.60
6654;DHT22;3363;50.942;7.034;2023-09-18T02:11:59;22.40;82.50
6654;DHT22;3363;50.942;7.034;2023-09-18T02:14:27;22.20;82.70
6654;DHT22;3363;50.942;7.034;2023-09-18T02:16:55;22.20;85.90
6654;DHT22;3363;50.942;7.034;2023-09-18T02:19:22;22.30;85.10
6654;DHT22;3363;50.942;7.034;2023-09-18T02:21:49;22.20;85.40
6654;DHT22;3363;50.942;7.034;2023-09-18T02:24:15;22.20;85.30
6654;DHT22;3363;50.942;7.034;2023-09-18T02:26:42;22.20;85.10
6654;DHT22;3363;50.942;7.034;2023-09-18T02:29:10;22.20;85.40
6654;DHT22;3363;50.942;7.034;2023-09-18T02:31:40;22.20;85.40
6654;DHT22;3363;50.942;7.034;2023-09-18T02:34:07;22.20;85.10
6654;DHT22;3363;50.942;7.034;2023-09-18T02:36:34;22.20;85.00
6654;DHT22;3363;50.942;7.034;2023-09-18T02:39:01;22.10;86.80
6654;DHT22;3363;50.942;7.034;2023-09-18T02:41:28;22.00;88.20
6654;DHT22;3363;50.942;7.034;2023-09-18T02:43:54;22.10;87.50
6654;DHT22;3363;50.942;7.034;2023-09-18T02:46:21;22.20;86.60
6654;DHT22;3363;50.942;7.034;2023-09-18T02:48:49;22.10;88.90
6654;DHT22;3363;50.942;7.034;2023-09-18T02:51:16;22.10;88.60
6654;DHT22;3363;50.942;7.034;2023-09-18T02:53:42;22.10;91.70
6654;DHT22;3363;50.942;7.034;2023-09-18T02:56:09;22.00;92.30
6654;DHT22;3363;50.942;7.034;2023-09-18T02:58:36;21.90;92.50
6654;DHT22;3363;50.942;7.034;2023-09-18T03:01:02;22.00;92.90
6654;DHT22;3363;50.942;7.034;2023-09-18T03:03:30;22.10;91.90
6654;DHT22;3363;50.942;7.034;2023-09-18T03:06:01;22.20;91.40
6654;DHT22;3363;50.942;7.034;2023-09-18T03:08:28;22.20;91.30
6654;DHT22;3363;50.942;7.034;2023-09-18T03:10:55;22.30;91.30
6654;DHT22;3363;50.942;7.034;2023-09-18T03:13:22;22.20;92.00
6654;DHT22;3363;50.942;7.034;2023-09-18T03:15:48;22.10;94.00
6654;DHT22;3363;50.942;7.034;2023-09-18T03:18:15;22.00;95.10
6654;DHT22;3363;50.942;7.034;2023-09-18T03:20:41;22.10;94.90
6654;DHT22;3363;50.942;7.034;2023-09-18T03:23:09;22.10;97.70
6654;DHT22;3363;50.942;7.034;2023-09-18T03:25:36;22.00;97.70
6654;DHT22;3363;50.942;7.034;2023-09-18T03:28:03;22.10;97.80
6654;DHT22;3363;50.942;7.034;2023-09-18T03:30:30;22.10;96.50
6654;DHT22;3363;50.942;7.034;2023-09-18T03:32:57;22.10;97.00
6654;DHT22;3363;50.942;7.034;2023-09-18T03:35:23;22.10;97.10
6654;DHT22;3363;50.942;7.034;2023-09-18T03:37:51;22.10;99.00
6654;DHT22;3363;50.942;7.034;2023-09-18T03:40:20;22.00;98.90
6654;DHT22;3363;50.942;7.034;2023-09-18T03:42:47;22.00;99.70
6654;DHT22;3363;50.942;7.034;2023-09-18T03:45:14;22.00;99.30
6654;DHT22;3363;50.942;7.034;2023-09-18T03:47:43;22.00;99.90
6654;DHT22;3363;50.942;7.034;2023-09-18T03:50:10;21.90;99.90
6654;DHT22;3363;50.942;7.034;2023-09-18T03:52:37;21.90;99.90
6654;DHT22;3363;50.942;7.034;2023-09-18T03:55:05;21.70;99.90
6654;DHT22;3363;50.942;7.034;2023-09-18T03:57:33;21.70;99.90
6654;DHT22;3363;50.942;7.034;2023-09-18T04:00:00;21.80;99.90
6654;DHT22;3363;50.942;7.034;2023-09-18T04:02:28;21.70;99.90
6654;DHT22;3363;50.942;7.034;2023-09-18T04:04:55;21.70;99.90
6654;DHT22;3363;50.942;7.034;2023-09-18T04:07:22;21.80;99.90
6654;DHT22;3363;50.942;7.034;2023-09-18T04:09:48;21.90;99.90
6654;DHT22;3363;50.942;7.034;2023-09-18T04:12:15;21.90;99.90
6654;DHT22;3363;50.942;7.034;2023-09-18T04:14:43;22.00;99.90
6654;DHT22;3363;50.942;7.034;2023-09-18T04:17:10;21.90;99.90
6654;DHT22;3363;50.942;7.034;2023-09-18T04:19:36;21.80;99.90
6654;DHT22;3363;50.942;7.034;2023-09-18T04:22:03;21.70;99.90
6654;DHT22;3363;50.942;7.034;2023-09-18T04:24:30;21.80;99.90
6654;DHT22;3363;50.942;7.034;2023-09-18T04:26:56;21.70;99.90
6654;DHT22;3363;50.942;7.034;2023-09-18T04:29:23;21.70;99.90
6654;DHT22;3363;50.942;7.034;2023-09-18T04:31:51;21.70;99.90
6654;DHT22;3363;50.942;7.034;2023-09-18T04:34:19;21.80;99.90
6654;DHT22;3363;50.942;7.034;2023-09-18T04:36:46;21.80;99.90
6654;DHT22;3363;50.942;7.034;2023-09-18T04:39:13;21.70;99.90
6654;DHT22;3363;50.942;7.034;2023-09-18T04:41:40;21.70;99.90
6654;DHT22;3363;50.942;7.034;2023-09-18T04:44:06;21.70;99.90
6654;DHT22;3363;50.942;7.034;2023-09-18T04:46:33;21.70;99.90
6654;DHT22;3363;50.942;7.034;2023-09-18T04:49:02;21.60;99.90
6654;DHT22;3363;50.942;7.034;2023-09-18T04:51:30;21.60;99.90
6654;DHT22;3363;50.942;7.034;2023-09-18T04:53:57;21.70;99.90
6654;DHT22;3363;50.942;7.034;2023-09-18T04:56:24;21.70;99.90
6654;DHT22;3363;50.942;7.034;2023-09-18T04:58:52;21.70;99.90
6654;DHT22;3363;50.942;7.034;2023-09-18T05:01:18;21.80;99.90
6654;DHT22;3363;50.942;7.034;2023-09-18T05:03:45;21.70;99.90
6654;DHT22;3363;50.942;7.034;2023-09-18T05:06:15;21.70;99.90
6654;DHT22;3363;50.942;7.034;2023-09-18T05:08:43;21.80;99.90
6654;DHT22;3363;50.942;7.034;2023-09-18T05:11:09;21.70;99.90
6654;DHT22;3363;50.942;7.034;2023-09-18T05:13:36;21.70;99.90
6654;DHT22;3363;50.942;7.034;2023-09-18T05:16:03;21.80;99.90
6654;DHT22;3363;50.942;7.034;2023-09-18T05:18:30;21.80;99.90
6654;DHT22;3363;50.942;7.034;2023-09-18T05:20:56;21.80;99.90
6654;DHT22;3363;50.942;7.034;2023-09-18T05:23:24;21.80;99.90
6654;DHT22;3363;50.942;7.034;2023-09-18T05:25:51;21.80;99.90
6654;DHT22;3363;50.942;7.034;2023-09-18T05:28:18;21.80;99.90
6654;DHT22;3363;50.942;7.034;2023-09-18T05:30:45;21.80;99.90
6654;DHT22;3363;50.942;7.034;2023-09-18T05:33:11;21.60;99.90
6654;DHT22;3363;50.942;7.034;2023-09-18T05:35:39;21.50;99.90
6654;DHT22;3363;50.942;7.034;2023-09-18T05:38:06;21.60;99.90
6654;DHT22;3363;50.942;7.034;2023-09-18T05:40:35;21.60;99.90
6654;DHT22;3363;50.942;7.034;2023-09-18T05:43:02;21.60;99.90
6654;DHT22;3363;50.942;7.034;2023-09-18T05:45:29;21.60;99.90
6654;DHT22;3363;50.942;7.034;2023-09-18T05:47:57;21.60;99.90
6654;DHT22;3363;50.942;7.034;2023-09-18T05:50:29;21.50;99.90
6654;DHT22;3363;50.942;7.034;2023-09-18T05:52:56;21.50;99.90
6654;DHT22;3363;50.942;7.034;2023-09-18T05:55:24;21.40;99.90
6654;DHT22;3363;50.942;7.034;2023-09-18T05:57:52;21.40;99.90
6654;DHT22;3363;50.942;7.034;2023-09-18T06:00:19;21.30;99.90
6654;DHT22;3363;50.942;7.034;2023-09-18T06:02:47;21.30;99.90
6654;DHT22;3363;50.942;7.034;2023-09-18T06:05:14;21.40;99.90
6654;DHT22;3363;50.942;7.034;2023-09-18T06:07:42;21.40;99.90
6654;DHT22;3363;50.942;7.034;2023-09-18T06:10:09;21.30;99.90
6654;DHT22;3363;50.942;7.034;2023-09-18T06:12:38;21.40;99.90
6654;DHT22;3363;50.942;7.034;2023-09-18T06:15:06;21.40;99.90
6654;DHT22;3363;50.942;7.034;2023-09-18T06:17:35;21.40;99.90
6654;DHT22;3363;50.942;7.034;2023-09-18T06:20:02;21.50;99.90
6654;DHT22;3363;50.942;7.034;2023-09-18T06:22:29;21.40;99.90
6654;DHT22;3363;50.942;7.034;2023-09-18T06:24:56;21.40;99.90
6654;DHT22;3363;50.942;7.034;2023-09-18T06:27:23;21.40;99.90
6654;DHT22;3363;50.942;7.034;2023-09-18T06:29:50;21.40;99.90
6654;DHT22;3363;50.942;7.034;2023-09-18T06:32:18;21.50;99.50
6654;DHT22;3363;50.942;7.034;2023-09-18T06:34:44;21.40;99.90
6654;DHT22;3363;50.942;7.034;2023-09-18T06:37:12;21.50;99.90
6654;DHT22;3363;50.942;7.034;2023-09-18T06:39:39;21.50;99.90
6654;DHT22;3363;50.942;7.034;2023-09-18T06:42:06;21.40;99.90
6654;DHT22;3363;50.942;7.034;2023-09-18T06:44:32;21.40;99.90
6654;DHT22;3363;50.942;7.034;2023-09-18T06:46:59;21.60;99.90
6654;DHT22;3363;50.942;7.034;2023-09-18T06:49:27;21.60;99.10
6654;DHT22;3363;50.942;7.034;2023-09-18T06:51:54;21.60;99.20
6654;DHT22;3363;50.942;7.034;2023-09-18T06:54:20;21.60;96.10
6654;DHT22;3363;50.942;7.034;2023-09-18T06:56:47;21.60;97.50
6654;DHT22;3363;50.942;7.034;2023-09-18T06:59:14;21.60;96.50
6654;DHT22;3363;50.942;7.034;2023-09-18T07:01:41;21.60;97.20
6654;DHT22;3363;50.942;7.034;2023-09-18T07:04:07;21.60;97.40
6654;DHT22;3363;50.942;7.034;2023-09-18T07:06:35;21.50;96.40
6654;DHT22;3363;50.942;7.034;2023-09-18T07:09:02;21.40;96.60
6654;DHT22;3363;50.942;7.034;2023-09-18T07:11:32;21.40;98.20
6654;DHT22;3363;50.942;7.034;2023-09-18T07:13:58;21.50;97.60
6654;DHT22;3363;50.942;7.034;2023-09-18T07:16:26;21.60;97.10
6654;DHT22;3363;50.942;7.034;2023-09-18T07:18:53;21.60;96.50
6654;DHT22;3363;50.942;7.034;2023-09-18T07:21:19;21.60;95.40
6654;DHT22;3363;50.942;7.034;2023-09-18T07:23:47;21.50;96.50
6654;DHT22;3363;50.942;7.034;2023-09-18T07:26:14;21.60;96.20
6654;DHT22;3363;50.942;7.034;2023-09-18T07:28:40;21.70;95.30
6654;DHT22;3363;50.942;7.034;2023-09-18T07:31:11;21.70;94.70
6654;DHT22;3363;50.942;7.034;2023-09-18T07:33:39;21.80;93.70
6654;DHT22;3363;50.942;7.034;2023-09-18T07:36:06;21.70;94.20
6654;DHT22;3363;50.942;7.034;2023-09-18T07:38:33;21.60;94.80
6654;DHT22;3363;50.942;7.034;2023-09-18T07:41:01;21.70;93.70
6654;DHT22;3363;50.942;7.034;2023-09-18T07:43:27;21.70;95.20
6654;DHT22;3363;50.942;7.034;2023-09-18T07:45:54;21.60;95.20
6654;DHT22;3363;50.942;7.034;2023-09-18T07:48:22;21.50;96.20
6654;DHT22;3363;50.942;7.034;2023-09-18T07:50:49;21.60;96.20
6654;DHT22;3363;50.942;7.034;2023-09-18T07:53:15;21.50;99.10
6654;DHT22;3363;50.942;7.034;2023-09-18T07:55:42;21.60;96.70
6654;DHT22;3363;50.942;7.034;2023-09-18T07:58:10;21.60;96.60
6654;DHT22;3363;50.942;7.034;2023-09-18T08:00:37;21.50;96.00
6654;DHT22;3363;50.942;7.034;2023-09-18T08:03:04;21.60;96.30
6654;DHT22;3363;50.942;7.034;2023-09-18T08:05:31;21.60;95.70
6654;DHT22;3363;50.942;7.034;2023-09-18T08:07:57;21.40;95.70
6654;DHT22;3363;50.942;7.034;2023-09-18T08:10:24;21.50;96.20
6654;DHT22;3363;50.942;7.034;2023-09-18T08:12:51;21.50;95.70
6654;DHT22;3363;50.942;7.034;2023-09-18T08:15:20;21.40;95.20
6654;DHT22;3363;50.942;7.034;2023-09-18T08:17:46;21.50;96.00
6654;DHT22;3363;50.942;7.034;2023-09-18T08:20:14;21.40;95.80
6654;DHT22;3363;50.942;7.034;2023-09-18T08:22:41;21.40;95.40
6654;DHT22;3363;50.942;7.034;2023-09-18T08:25:08;21.40;96.30
6654;DHT22;3363;50.942;7.034;2023-09-18T08:27:36;21.50;96.70
6654;DHT22;3363;50.942;7.034;2023-09-18T08:30:06;21.60;96.40
6654;DHT22;3363;50.942;7.034;2023-09-18T08:32:34;21.60;95.70
6654;DHT22;3363;50.942;7.034;2023-09-18T08:35:00;21.70;94.40
6654;DHT22;3363;50.942;7.034;2023-09-18T08:37:27;21.60;93.80
6654;DHT22;3363;50.942;7.034;2023-09-18T08:39:54;21.60;92.30
6654;DHT22;3363;50.942;7.034;2023-09-18T08:42:21;21.60;92.00
6654;DHT22;3363;50.942;7.034;2023-09-18T08:44:48;21.70;93.60
6654;DHT22;3363;50.942;7.034;2023-09-18T08:47:15;21.70;93.10
6654;DHT22;3363;50.942;7.034;2023-09-18T08:49:44;21.70;93.60
6654;DHT22;3363;50.942;7.034;2023-09-18T08:52:11;21.60;93.70
6654;DHT22;3363;50.942;7.034;2023-09-18T08:54:38;21.70;94.40
6654;DHT22;3363;50.942;7.034;2023-09-18T08:57:04;21.60;93.00
6654;DHT22;3363;50.942;7.034;2023-09-18T08:59:33;21.70;91.80
6654;DHT22;3363;50.942;7.034;2023-09-18T09:02:01;21.60;92.30
6654;DHT22;3363;50.942;7.034;2023-09-18T09:04:27;21.70;92.20
6654;DHT22;3363;50.942;7.034;2023-09-18T09:06:55;21.80;91.70
6654;DHT22;3363;50.942;7.034;2023-09-18T09:09:24;21.80;91.70
6654;DHT22;3363;50.942;7.034;2023-09-18T09:11:51;21.80;92.00
6654;DHT22;3363;50.942;7.034;2023-09-18T09:14:18;21.80;91.40
6654;DHT22;3363;50.942;7.034;2023-09-18T09:16:48;21.80;91.00
6654;DHT22;3363;50.942;7.034;2023-09-18T09:19:15;21.80;90.90
6654;DHT22;3363;50.942;7.034;2023-09-18T09:21:42;21.70;91.50
6654;DHT22;3363;50.942;7.034;2023-09-18T09:24:10;21.70;91.90
6654;DHT22;3363;50.942;7.034;2023-09-18T09:26:39;21.70;91.30
6654;DHT22;3363;50.942;7.034;2023-09-18T09:29:15;21.70;91.10
6654;DHT22;3363;50.942;7.034;2023-09-18T09:31:43;21.80;90.60
6654;DHT22;3363;50.942;7.034;2023-09-18T09:34:10;21.80;90.80
6654;DHT22;3363;50.942;7.034;2023-09-18T09:36:38;21.80;89.90
6654;DHT22;3363;50.942;7.034;2023-09-18T09:39:18;21.80;90.60
6654;DHT22;3363;50.942;7.034;2023-09-18T09:41:47;21.80;87.40
6654;DHT22;3363;50.942;7.034;2023-09-18T09:44:14;21.90;89.10
6654;DHT22;3363;50.942;7.034;2023-09-18T09:46:45;21.90;90.90
6654;DHT22;3363;50.942;7.034;2023-09-18T09:49:11;21.90;89.30
6654;DHT22;3363;50.942;7.034;2023-09-18T09:51:40;21.90;88.30
6654;DHT22;3363;50.942;7.034;2023-09-18T09:54:07;21.90;86.00
6654;DHT22;3363;50.942;7.034;2023-09-18T09:56:41;21.90;87.40
6654;DHT22;3363;50.942;7.034;2023-09-18T09:59:08;21.90;88.30
6654;DHT22;3363;50.942;7.034;2023-09-18T10:01:37;22.00;86.50
6654;DHT22;3363;50.942;7.034;2023-09-18T10:04:04;22.00;86.50
6654;DHT22;3363;50.942;7.034;2023-09-18T10:06:32;22.00;84.90
6654;DHT22;3363;50.942;7.034;2023-09-18T10:08:59;22.10;87.10
6654;DHT22;3363;50.942;7.034;2023-09-18T10:11:26;22.10;86.20
6654;DHT22;3363;50.942;7.034;2023-09-18T10:13:55;22.20;84.30
6654;DHT22;3363;50.942;7.034;2023-09-18T10:16:24;22.30;83.00
6654;DHT22;3363;50.942;7.034;2023-09-18T10:18:56;22.30;84.40
6654;DHT22;3363;50.942;7.034;2023-09-18T10:21:26;22.40;81.90
6654;DHT22;3363;50.942;7.034;2023-09-18T10:23:59;22.50;80.00
6654;DHT22;3363;50.942;7.034;2023-09-18T10:26:26;22.60;78.90
6654;DHT22;3363;50.942;7.034;2023-09-18T10:28:56;22.50;81.00
6654;DHT22;3363;50.942;7.034;2023-09-18T10:31:26;22.70;80.40
6654;DHT22;3363;50.942;7.034;2023-09-18T10:33:52;22.80;79.00
6654;DHT22;3363;50.942;7.034;2023-09-18T10:36:19;22.90;77.60
6654;DHT22;3363;50.942;7.034;2023-09-18T10:38:47;23.10;77.00
6654;DHT22;3363;50.942;7.034;2023-09-18T10:41:17;23.20;75.50
6654;DHT22;3363;50.942;7.034;2023-09-18T10:43:45;23.30;74.10
6654;DHT22;3363;50.942;7.034;2023-09-18T10:46:13;23.50;71.80
6654;DHT22;3363;50.942;7.034;2023-09-18T10:48:40;23.50;69.70
6654;DHT22;3363;50.942;7.034;2023-09-18T10:51:07;23.50;70.60
6654;DHT22;3363;50.942;7.034;2023-09-18T10:53:34;23.40;71.80
6654;DHT22;3363;50.942;7.034;2023-09-18T10:56:01;23.50;71.30
6654;DHT22;3363;50.942;7.034;2023-09-18T10:58:29;23.50;72.20
6654;DHT22;3363;50.942;7.034;2023-09-18T11:00:59;23.60;71.30
6654;DHT22;3363;50.942;7.034;2023-09-18T11:03:27;23.80;69.20
6654;DHT22;3363;50.942;7.034;2023-09-18T11:06:03;23.90;67.80
6654;DHT22;3363;50.942;7.034;2023-09-18T11:08:31;24.00;65.60
6654;DHT22;3363;50.942;7.034;2023-09-18T11:10:59;23.90;66.10
6654;DHT22;3363;50.942;7.034;2023-09-18T11:13:30;23.90;66.00
6654;DHT22;3363;50.942;7.034;2023-09-18T11:16:00;23.90;65.90
6654;DHT22;3363;50.942;7.034;2023-09-18T11:18:35;23.90;66.40
6654;DHT22;3363;50.942;7.034;2023-09-18T11:21:06;24.10;64.20
6654;DHT22;3363;50.942;7.034;2023-09-18T11:23:34;24.10;65.90
6654;DHT22;3363;50.942;7.034;2023-09-18T11:26:03;24.10;65.00
6654;DHT22;3363;50.942;7.034;2023-09-18T11:28:30;24.20;63.90
6654;DHT22;3363;50.942;7.034;2023-09-18T11:30:57;24.20;63.10
6654;DHT22;3363;50.942;7.034;2023-09-18T11:33:32;24.20;63.80
6654;DHT22;3363;50.942;7.034;2023-09-18T11:36:02;24.20;61.50
6654;DHT22;3363;50.942;7.034;2023-09-18T11:38:29;24.30;61.70
6654;DHT22;3363;50.942;7.034;2023-09-18T11:40:55;24.30;59.50
6654;DHT22;3363;50.942;7.034;2023-09-18T11:43:24;24.40;60.20
6654;DHT22;3363;50.942;7.034;2023-09-18T11:45:52;24.40;58.30
6654;DHT22;3363;50.942;7.034;2023-09-18T11:48:19;24.30;59.90
6654;DHT22;3363;50.942;7.034;2023-09-18T11:50:49;24.40;58.90
6654;DHT22;3363;50.942;7.034;2023-09-18T11:53:18;24.50;58.20
6654;DHT22;3363;50.942;7.034;2023-09-18T11:55:45;24.50;58.70
6654;DHT22;3363;50.942;7.034;2023-09-18T11:58:12;24.50;57.50
6654;DHT22;3363;50.942;7.034;2023-09-18T12:00:39;24.40;59.80
6654;DHT22;3363;50.942;7.034;2023-09-18T12:03:16;24.40;59.60
6654;DHT22;3363;50.942;7.034;2023-09-18T12:05:56;24.40;59.90
6654;DHT22;3363;50.942;7.034;2023-09-18T12:08:24;24.60;58.00
6654;DHT22;3363;50.942;7.034;2023-09-18T12:10:52;24.70;57.60
6654;DHT22;3363;50.942;7.034;2023-09-18T12:13:19;24.70;58.70
6654;DHT22;3363;50.942;7.034;2023-09-18T12:15:46;24.70;58.10
6654;DHT22;3363;50.942;7.034;2023-09-18T12:18:13;24.50;59.10
6654;DHT22;3363;50.942;7.034;2023-09-18T12:20:47;24.60;57.00
6654;DHT22;3363;50.942;7.034;2023-09-18T12:23:13;24.70;56.00
6654;DHT22;3363;50.942;7.034;2023-09-18T12:25:41;24.80;57.00
6654;DHT22;3363;50.942;7.034;2023-09-18T12:28:10;24.90;55.40
6654;DHT22;3363;50.942;7.034;2023-09-18T12:30:37;25.00;55.50
6654;DHT22;3363;50.942;7.034;2023-09-18T12:33:04;25.10;54.40
6654;DHT22;3363;50.942;7.034;2023-09-18T12:35:31;25.10;54.50
6654;DHT22;3363;50.942;7.034;2023-09-18T12:37:57;25.10;54.50
6654;DHT22;3363;50.942;7.034;2023-09-18T12:40:25;25.30;51.90
6654;DHT22;3363;50.942;7.034;2023-09-18T12:42:53;25.30;53.60
6654;DHT22;3363;50.942;7.034;2023-09-18T12:45:20;25.30;52.30
6654;DHT22;3363;50.942;7.034;2023-09-18T12:47:47;25.30;51.80
6654;DHT22;3363;50.942;7.034;2023-09-18T12:50:14;25.30;51.80
6654;DHT22;3363;50.942;7.034;2023-09-18T12:52:41;25.30;51.70
6654;DHT22;3363;50.942;7.034;2023-09-18T12:55:08;25.20;51.90
6654;DHT22;3363;50.942;7.034;2023-09-18T12:57:35;25.30;52.00
6654;DHT22;3363;50.942;7.034;2023-09-18T13:00:09;25.30;53.00
6654;DHT22;3363;50.942;7.034;2023-09-18T13:02:38;25.30;53.50
6654;DHT22;3363;50.942;7.034;2023-09-18T13:05:05;25.40;51.00
6654;DHT22;3363;50.942;7.034;2023-09-18T13:07:38;25.30;52.70
6654;DHT22;3363;50.942;7.034;2023-09-18T13:10:09;25.30;52.40
6654;DHT22;3363;50.942;7.034;2023-09-18T13:12:40;25.10;51.60
6654;DHT22;3363;50.942;7.034;2023-09-18T13:15:07;25.10;51.60
6654;DHT22;3363;50.942;7.034;2023-09-18T13:17:38;25.20;51.60
6654;DHT22;3363;50.942;7.034;2023-09-18T13:20:12;25.30;51.70
6654;DHT22;3363;50.942;7.034;2023-09-18T13:22:39;25.40;52.20
6654;DHT22;3363;50.942;7.034;2023-09-18T13:25:06;25.30;51.40
6654;DHT22;3363;50.942;7.034;2023-09-18T13:27:33;25.10;51.60
6654;DHT22;3363;50.942;7.034;2023-09-18T13:30:00;24.90;50.30
6654;DHT22;3363;50.942;7.034;2023-09-18T13:32:33;25.00;52.20
6654;DHT22;3363;50.942;7.034;2023-09-18T13:35:01;25.10;51.60
6654;DHT22;3363;50.942;7.034;2023-09-18T13:37:28;25.00;51.50
6654;DHT22;3363;50.942;7.034;2023-09-18T13:39:55;25.10;51.60
6654;DHT22;3363;50.942;7.034;2023-09-18T13:42:22;25.20;51.40
6654;DHT22;3363;50.942;7.034;2023-09-18T13:44:48;25.20;50.70
6654;DHT22;3363;50.942;7.034;2023-09-18T13:47:15;25.30;50.70
6654;DHT22;3363;50.942;7.034;2023-09-18T13:49:42;25.40;50.00
6654;DHT22;3363;50.942;7.034;2023-09-18T13:52:10;25.40;50.70
6654;DHT22;3363;50.942;7.034;2023-09-18T13:54:36;25.30;50.40
6654;DHT22;3363;50.942;7.034;2023-09-18T13:57:03;25.20;50.80
6654;DHT22;3363;50.942;7.034;2023-09-18T13:59:30;25.10;51.60
6654;DHT22;3363;50.942;7.034;2023-09-18T14:01:57;25.10;51.40
6654;DHT22;3363;50.942;7.034;2023-09-18T14:04:24;25.10;49.40
6654;DHT22;3363;50.942;7.034;2023-09-18T14:06:52;25.20;50.80
6654;DHT22;3363;50.942;7.034;2023-09-18T14:09:20;25.00;49.40
6654;DHT22;3363;50.942;7.034;2023-09-18T14:11:46;24.80;48.20
6654;DHT22;3363;50.942;7.034;2023-09-18T14:14:13;24.90;49.70
6654;DHT22;3363;50.942;7.034;2023-09-18T14:16:40;24.90;51.20
6654;DHT22;3363;50.942;7.034;2023-09-18T14:19:06;24.90;49.70
6654;DHT22;3363;50.942;7.034;2023-09-18T14:21:36;24.90;47.80
6654;DHT22;3363;50.942;7.034;2023-09-18T14:24:04;25.00;50.50
6654;DHT22;3363;50.942;7.034;2023-09-18T14:26:32;25.10;47.80
6654;DHT22;3363;50.942;7.034;2023-09-18T14:29:05;25.20;49.40
6654;DHT22;3363;50.942;7.034;2023-09-18T14:31:32;25.30;47.50
6654;DHT22;3363;50.942;7.034;2023-09-18T14:33:58;25.30;46.80
6654;DHT22;3363;50.942;7.034;2023-09-18T14:36:25;25.30;49.10
6654;DHT22;3363;50.942;7.034;2023-09-18T14:38:52;25.30;47.20
6654;DHT22;3363;50.942;7.034;2023-09-18T14:41:18;25.30;49.10
6654;DHT22;3363;50.942;7.034;2023-09-18T14:43:48;25.40;46.70
6654;DHT22;3363;50.942;7.034;2023-09-18T14:46:14;25.30;48.20
6654;DHT22;3363;50.942;7.034;2023-09-18T14:48:41;25.40;46.90
6654;DHT22;3363;50.942;7.034;2023-09-18T14:51:07;25.30;46.70
6654;DHT22;3363;50.942;7.034;2023-09-18T14:53:34;25.40;45.90
6654;DHT22;3363;50.942;7.034;2023-09-18T14:56:01;25.40;48.10
6654;DHT22;3363;50.942;7.034;2023-09-18T14:58:29;25.40;47.40
6654;DHT22;3363;50.942;7.034;2023-09-18T15:00:57;25.40;46.00
6654;DHT22;3363;50.942;7.034;2023-09-18T15:03:25;25.40;44.80
6654;DHT22;3363;50.942;7.034;2023-09-18T15:05:52;25.40;46.80
6654;DHT22;3363;50.942;7.034;2023-09-18T15:08:20;25.50;46.50
6654;DHT22;3363;50.942;7.034;2023-09-18T15:10:47;25.40;47.20
6654;DHT22;3363;50.942;7.034;2023-09-18T15:13:14;25.40;46.00
6654;DHT22;3363;50.942;7.034;2023-09-18T15:15:41;25.30;46.50
6654;DHT22;3363;50.942;7.034;2023-09-18T15:18:10;25.20;46.60
6654;DHT22;3363;50.942;7.034;2023-09-18T15:20:36;25.30;46.70
6654;DHT22;3363;50.942;7.034;2023-09-18T15:23:05;25.30;46.90
6654;DHT22;3363;50.942;7.034;2023-09-18T15:25:33;25.20;44.40
6654;DHT22;3363;50.942;7.034;2023-09-18T15:28:03;25.20;46.40
6654;DHT22;3363;50.942;7.034;2023-09-18T15:30:30;25.10;47.60
6654;DHT22;3363;50.942;7.034;2023-09-18T15:32:56;25.10;46.50
6654;DHT22;3363;50.942;7.034;2023-09-18T15:35:24;25.00;45.60
6654;DHT22;3363;50.942;7.034;2023-09-18T15:37:52;24.90;44.60
6654;DHT22;3363;50.942;7.034;2023-09-18T15:40:19;24.80;44.70
6654;DHT22;3363;50.942;7.034;2023-09-18T15:42:48;24.80;45.40
6654;DHT22;3363;50.942;7.034;2023-09-18T15:45:15;24.80;44.10
6654;DHT22;3363;50.942;7.034;2023-09-18T15:47:42;24.70;44.70
6654;DHT22;3363;50.942;7.034;2023-09-18T15:50:09;24.50;44.90
6654;DHT22;3363;50.942;7.034;2023-09-18T15:52:37;24.50;45.30
6654;DHT22;3363;50.942;7.034;2023-09-18T15:55:04;24.00;46.90
6654;DHT22;3363;50.942;7.034;2023-09-18T15:57:32;24.00;46.80
6654;DHT22;3363;50.942;7.034;2023-09-18T15:59:59;24.20;46.00
6654;DHT22;3363;50.942;7.034;2023-09-18T16:02:29;23.90;46.70
6654;DHT22;3363;50.942;7.034;2023-09-18T16:04:57;24.00;46.70